Time;durP1;ratioP1;P1;durP2;ratioP2;P2;SDS_P1;SDS_P2;PMS_P1;PMS_P2;Temp;Humidity;BMP_temperature;BMP_pressure;BME280_temperature;BME280_humidity;BME280_pressure;Samples;Min_cycle;Max_cycle;Signal;HPM_P1;HPM_P2
2022/04/22 00:01:36;;;;;;;23.25;10.73;;;;;;;9.54;80.71;100753.44;5063625;28;20025;-64
2022/04/22 00:04:03;;;;;;;22.80;10.75;;;;;;;9.58;81.38;100751.69;5064859;28;20032;-64
2022/04/22 00:06:29;;;;;;;22.38;11.15;;;;;;;9.50;81.98;100750.75;5062691;28;20078;-63
2022/04/22 00:08:54;;;;;;;23.63;10.95;;;;;;;9.46;82.58;100743.69;5065497;28;20020;-63
2022/04/22 00:11:31;;;;;;;23.23;11.85;;;;;;;9.55;82.66;100744.66;5062123;28;20032;-63
2022/04/22 00:13:59;;;;;;;23.13;11.57;;;;;;;9.42;83.42;100742.75;5062268;28;20029;-63
2022/04/22 00:16:28;;;;;;;23.52;11.57;;;;;;;9.41;84.14;100741.91;5065471;28;20020;-63
2022/04/22 00:18:54;;;;;;;23.70;11.90;;;;;;;9.40;84.59;100733.97;5061710;28;20078;-63
2022/04/22 00:21:20;;;;;;;23.60;12.32;;;;;;;9.32;85.41;100744.47;5064839;28;20039;-63
2022/04/22 00:23:46;;;;;;;23.40;11.82;;;;;;;9.33;85.44;100738.31;5062618;28;20036;-64
2022/04/22 00:26:12;;;;;;;24.05;11.90;;;;;;;9.31;85.52;100734.78;5063928;28;20025;-63
2022/04/22 00:28:37;;;;;;;23.00;11.57;;;;;;;9.33;85.67;100740.06;5062210;28;20055;-63
2022/04/22 00:31:03;;;;;;;22.77;11.75;;;;;;;9.29;86.36;100740.91;5062048;28;20162;-63
2022/04/22 00:33:29;;;;;;;23.33;12.10;;;;;;;9.32;85.94;100741.84;5064517;28;20020;-63
2022/04/22 00:35:54;;;;;;;23.08;11.85;;;;;;;9.24;86.97;100739.13;5061405;28;20078;-64
2022/04/22 00:38:20;;;;;;;23.63;12.18;;;;;;;9.20;87.53;100726.78;5063828;28;20036;-63
2022/04/22 00:40:45;;;;;;;25.38;12.63;;;;;;;9.23;87.46;100731.19;5062234;28;20032;-64
2022/04/22 00:43:14;;;;;;;23.80;12.18;;;;;;;9.13;88.41;100737.25;5063609;28;20039;-63
2022/04/22 00:45:40;;;;;;;25.02;12.82;;;;;;;9.05;89.05;100732.81;5063110;28;20043;-63
2022/04/22 00:48:06;;;;;;;25.25;12.50;;;;;;;9.05;89.85;100722.25;5062399;28;20033;-63
2022/04/22 00:50:31;;;;;;;24.65;12.75;;;;;;;9.03;90.16;100721.38;5063883;28;20395;-64
2022/04/22 00:52:57;;;;;;;23.73;12.23;;;;;;;8.97;91.01;100723.97;5061305;28;20044;-63
2022/04/22 00:55:23;;;;;;;23.70;12.15;;;;;;;9.00;91.35;100723.97;5064552;28;20471;-64
2022/04/22 00:57:49;;;;;;;23.35;11.95;;;;;;;8.96;91.61;100716.03;5061817;28;20024;-63
2022/04/22 01:00:15;;;;;;;23.42;12.75;;;;;;;8.92;92.55;100722.16;5063714;28;20536;-63
2022/04/22 01:02:40;;;;;;;23.63;12.48;;;;;;;8.87;92.94;100716.84;5062678;28;20100;-63
2022/04/22 01:10:36;;;;;;;23.45;13.10;;;;;;;8.68;97.08;100706.13;5062698;28;20128;-63
2022/04/22 01:13:02;;;;;;;23.20;12.65;;;;;;;8.68;98.24;100708.75;5063684;28;20121;-63
2022/04/22 01:15:28;;;;;;;24.92;13.10;;;;;;;8.64;99.25;100709.56;5060745;28;20082;-63
2022/04/22 01:17:53;;;;;;;23.92;13.00;;;;;;;8.67;99.57;100703.47;5064736;28;20073;-67
2022/04/22 01:20:18;;;;;;;24.45;13.40;;;;;;;8.63;100.00;100699.91;5061566;28;20025;-68
2022/04/22 01:22:44;;;;;;;25.75;13.73;;;;;;;8.61;100.00;100699.00;5063016;28;20480;-69
2022/04/22 01:25:09;;;;;;;24.35;13.70;;;;;;;8.55;100.00;100704.22;5062625;28;20032;-65
2022/04/22 01:27:37;;;;;;;24.35;13.10;;;;;;;8.60;100.00;100699.88;5061893;28;20028;-65
2022/04/22 01:30:06;;;;;;;25.02;13.98;;;;;;;8.70;100.00;100698.22;5063680;28;20035;-65
2022/04/22 01:32:31;;;;;;;25.02;13.63;;;;;;;8.72;100.00;100686.81;5061461;28;20064;-65
2022/04/22 01:34:57;;;;;;;25.98;13.80;;;;;;;8.68;100.00;100690.31;5064293;28;20053;-65
2022/04/22 01:37:23;;;;;;;23.92;13.40;;;;;;;8.75;100.00;100696.50;5060918;28;20062;-65
2022/04/22 01:39:49;;;;;;;25.17;13.80;;;;;;;8.83;100.00;100689.56;5063820;28;20028;-64
2022/04/22 01:42:14;;;;;;;25.95;13.45;;;;;;;8.85;100.00;100681.66;5063179;28;20475;-64
2022/04/22 01:44:39;;;;;;;25.40;14.05;;;;;;;8.88;100.00;100686.94;5066239;28;20091;-63
2022/04/22 01:47:05;;;;;;;25.80;14.07;;;;;;;8.83;100.00;100688.69;5067254;28;20020;-64
2022/04/22 01:49:31;;;;;;;24.83;14.15;;;;;;;8.83;100.00;100683.41;5065106;28;20071;-64
2022/04/22 01:51:56;;;;;;;26.00;14.55;;;;;;;8.73;100.00;100693.84;5067931;28;20037;-65
2022/04/22 01:54:22;;;;;;;26.50;14.60;;;;;;;8.66;100.00;100689.38;5064949;28;20053;-64
2022/04/22 01:56:47;;;;;;;26.27;14.75;;;;;;;8.54;100.00;100686.63;5067043;28;20020;-65
2022/04/22 01:59:13;;;;;;;26.05;14.93;;;;;;;8.44;100.00;100692.66;5066006;28;20064;-64
2022/04/22 02:01:38;;;;;;;26.40;14.52;;;;;;;8.35;100.00;100686.41;5065736;28;20021;-64
2022/04/22 02:04:04;;;;;;;25.67;14.65;;;;;;;8.28;100.00;100691.59;5066957;28;20017;-64
2022/04/22 02:06:29;;;;;;;27.67;15.13;;;;;;;8.25;100.00;100692.44;5064783;28;20399;-64
2022/04/22 02:08:55;;;;;;;26.80;16.15;;;;;;;8.19;100.00;100690.63;5067732;28;20485;-65
2022/04/22 02:11:21;;;;;;;26.05;15.10;;;;;;;8.17;100.00;100686.22;5064459;28;20459;-66
2022/04/22 02:13:46;;;;;;;26.17;15.07;;;;;;;8.14;100.00;100696.69;5065780;28;20124;-66
2022/04/22 02:16:12;;;;;;;25.45;15.63;;;;;;;8.11;100.00;100686.13;5065547;28;20032;-64
2022/04/22 02:18:39;;;;;;;26.35;15.50;;;;;;;8.04;100.00;100690.44;5065377;28;20487;-64
2022/04/22 02:21:06;;;;;;;26.73;15.50;;;;;;;8.02;100.00;100693.06;5066610;28;20055;-65
2022/04/22 02:23:32;;;;;;;26.42;15.73;;;;;;;7.98;100.00;100686.00;5064487;28;20109;-68
2022/04/22 02:25:57;;;;;;;26.98;16.52;;;;;;;8.01;100.00;100688.66;5067369;28;20020;-66
2022/04/22 02:28:33;;;;;;;25.35;15.70;;;;;;;7.98;100.00;100688.63;5064205;28;20021;-64
2022/04/22 02:31:04;;;;;;;25.52;15.50;;;;;;;8.09;100.00;100690.50;5062863;28;20377;-65
2022/04/22 02:33:30;;;;;;;27.75;15.15;;;;;;;8.10;100.00;100693.16;5067322;28;20082;-65
2022/04/22 02:35:56;;;;;;;25.58;15.63;;;;;;;8.19;100.00;100690.63;5063753;28;20104;-64
2022/04/22 02:38:21;;;;;;;27.42;15.90;;;;;;;8.15;100.00;100677.41;5067060;28;20060;-64
2022/04/22 02:46:14;;;;;;;27.00;16.52;;;;;;;8.03;100.00;100671.13;5065086;28;20055;-67
2022/04/22 02:48:39;;;;;;;27.80;16.83;;;;;;;8.00;100.00;100670.22;5065598;28;20037;-64
2022/04/22 02:51:05;;;;;;;26.08;16.30;;;;;;;7.89;100.00;100670.06;5065981;28;20025;-65
2022/04/22 02:53:30;;;;;;;26.42;16.00;;;;;;;7.83;100.00;100670.00;5062045;28;20048;-65
2022/04/22 02:55:56;;;;;;;27.00;16.73;;;;;;;7.74;100.00;100669.88;5066160;28;20103;-63
2022/04/22 02:58:21;;;;;;;27.13;16.33;;;;;;;7.71;100.00;100668.09;5062376;28;20056;-63
2022/04/22 03:00:47;;;;;;;26.35;16.33;;;;;;;7.69;100.00;100667.19;5064642;28;20032;-63
2022/04/22 03:03:13;;;;;;;27.60;17.10;;;;;;;7.65;100.00;100663.63;5064000;28;20024;-63
2022/04/22 03:05:38;;;;;;;27.08;17.17;;;;;;;7.63;100.00;100667.09;5063324;28;20357;-64
2022/04/22 03:08:05;;;;;;;28.38;17.20;;;;;;;7.58;100.00;100664.41;5064774;28;20029;-63
2022/04/22 03:10:30;;;;;;;27.33;16.90;;;;;;;7.55;100.00;100660.84;5061145;28;20099;-63
2022/04/22 03:12:56;;;;;;;28.00;17.00;;;;;;;7.51;100.00;100657.28;5065366;28;20028;-63
2022/04/22 03:15:21;;;;;;;27.83;17.40;;;;;;;7.43;100.00;100656.31;5062150;28;20029;-63
2022/04/22 03:17:48;;;;;;;29.02;17.92;;;;;;;7.40;100.00;100653.66;5064861;28;20069;-63
2022/04/22 03:20:14;;;;;;;28.45;17.83;;;;;;;7.40;100.00;100645.75;5063212;28;20044;-63
2022/04/22 03:22:39;;;;;;;29.27;18.00;;;;;;;7.39;100.00;100657.13;5063553;28;20479;-63
2022/04/22 03:25:05;;;;;;;28.42;17.90;;;;;;;7.33;100.00;100652.66;5064382;28;20028;-63
2022/04/22 03:27:30;;;;;;;29.30;17.83;;;;;;;7.26;100.00;100650.81;5062005;28;20029;-63
2022/04/22 03:29:56;;;;;;;28.38;17.83;;;;;;;7.24;100.00;100653.41;5065555;28;20025;-63
2022/04/22 03:32:21;;;;;;;29.25;18.58;;;;;;;7.25;100.00;100656.91;5062199;28;20544;-63
2022/04/22 03:34:46;;;;;;;30.65;17.65;;;;;;;7.22;100.00;100656.88;5064028;28;20109;-63
2022/04/22 03:37:12;;;;;;;29.50;18.38;;;;;;;7.19;100.00;100655.06;5063587;28;20025;-63
2022/04/22 03:39:37;;;;;;;30.20;19.00;;;;;;;7.13;100.00;100654.97;5062947;28;20027;-63
2022/04/22 03:42:02;;;;;;;30.40;19.42;;;;;;;7.09;100.00;100650.53;5064552;28;20027;-63
2022/04/22 03:44:28;;;;;;;29.83;18.58;;;;;;;7.07;100.00;100644.38;5061460;28;20479;-66
2022/04/22 03:46:53;;;;;;;29.48;18.90;;;;;;;7.07;100.00;100649.63;5065115;28;20060;-68
2022/04/22 03:49:18;;;;;;;29.58;19.27;;;;;;;7.10;100.00;100649.69;5062182;28;20056;-68
2022/04/22 03:51:44;;;;;;;28.25;18.35;;;;;;;7.09;100.00;100645.28;5058793;28;126187;-66
2022/04/22 03:54:09;;;;;;;31.45;19.80;;;;;;;7.07;100.00;100641.75;5063504;28;20068;-69
2022/04/22 03:59:19;;;;;;;29.75;19.73;;;;;;;7.07;100.00;100637.38;5063240;28;20031;-68
2022/04/22 04:01:44;;;;;;;32.90;20.45;;;;;;;7.03;100.00;100632.03;5064141;28;20033;-67
2022/04/22 04:04:10;;;;;;;30.58;20.08;;;;;;;7.05;100.00;100635.56;5063781;28;20036;-68
2022/04/22 04:06:36;;;;;;;30.73;20.10;;;;;;;7.04;100.00;100628.56;5063168;28;20017;-64
2022/04/22 04:17:14;;;;;;;32.78;21.08;;;;;;;7.05;100.00;100635.56;5063506;28;20086;-65
2022/04/22 04:25:09;;;;;;;31.13;20.95;;;;;;;7.05;100.00;100635.56;5063030;28;20507;-66
2022/04/22 04:27:39;;;;;;;31.85;21.20;;;;;;;7.00;100.00;100629.38;5064590;28;20025;-64
2022/04/22 04:30:06;;;;;;;30.95;20.13;;;;;;;7.02;100.00;100636.44;5062554;28;20025;-65
2022/04/22 04:32:31;;;;;;;31.38;21.23;;;;;;;6.99;100.00;100615.38;5064597;28;20031;-64
2022/04/22 04:34:57;;;;;;;30.55;20.67;;;;;;;7.00;100.00;100621.50;5061581;28;20037;-64
2022/04/22 04:37:22;;;;;;;33.10;21.50;;;;;;;6.97;100.00;100625.84;5064479;28;20048;-64
2022/04/22 04:39:47;;;;;;;31.40;21.05;;;;;;;7.00;100.00;100632.88;5062377;28;20063;-65
2022/04/22 04:42:13;;;;;;;31.75;20.98;;;;;;;7.02;100.00;100625.00;5063442;28;20104;-64
2022/04/22 04:44:38;;;;;;;32.85;21.95;;;;;;;6.97;100.00;100633.75;5063456;28;20035;-64
2022/04/22 04:47:04;;;;;;;34.00;22.42;;;;;;;7.02;100.00;100630.25;5061847;28;20025;-65
2022/04/22 04:49:29;;;;;;;32.72;21.90;;;;;;;7.07;100.00;100629.47;5064857;28;20131;-69
2022/04/22 04:51:55;;;;;;;34.28;21.90;;;;;;;7.14;100.00;100641.00;5060777;28;20560;-68
2022/04/22 04:54:20;;;;;;;32.72;22.17;;;;;;;7.17;100.00;100633.16;5064107;28;20243;-69
2022/04/22 04:56:45;;;;;;;33.35;22.42;;;;;;;7.20;100.00;100627.94;5062770;28;20074;-67
2022/04/22 04:59:11;;;;;;;33.35;22.23;;;;;;;7.22;100.00;100634.06;5062573;28;20082;-69
2022/04/22 05:01:37;;;;;;;32.92;22.02;;;;;;;7.22;100.00;100628.81;5063800;28;20421;-68
2022/04/22 05:04:02;;;;;;;32.47;21.80;;;;;;;7.25;100.00;100631.53;5061351;28;20498;-69
2022/04/22 05:06:28;;;;;;;33.28;22.30;;;;;;;7.27;100.00;100621.91;5064368;28;20125;-68
2022/04/22 05:08:54;;;;;;;32.30;22.17;;;;;;;7.29;100.00;100630.69;5061522;28;20485;-67
2022/04/22 05:11:19;;;;;;;31.67;21.55;;;;;;;7.33;100.00;100629.00;5063913;28;20021;-65
2022/04/22 05:13:44;;;;;;;32.22;22.17;;;;;;;7.42;100.00;100630.88;5062429;28;20042;-64
2022/04/22 05:16:10;;;;;;;34.03;22.60;;;;;;;7.37;100.00;100629.91;5062263;28;20501;-64
2022/04/22 05:18:35;;;;;;;31.75;21.70;;;;;;;7.38;100.00;100637.81;5063538;28;20024;-64
2022/04/22 05:21:00;;;;;;;32.10;21.95;;;;;;;7.43;100.00;100635.28;5061413;28;20048;-64
2022/04/22 05:23:26;;;;;;;33.30;22.30;;;;;;;7.46;100.00;100632.69;5063249;28;20032;-64
2022/04/22 05:25:51;;;;;;;32.72;22.20;;;;;;;7.48;100.00;100634.47;5061174;28;20037;-65
2022/04/22 05:28:16;;;;;;;32.47;22.38;;;;;;;7.50;100.00;100635.38;5062936;28;20079;-64
2022/04/22 05:33:25;;;;;;;34.42;23.20;;;;;;;7.64;100.00;100632.03;5061152;28;20036;-64
2022/04/22 05:35:51;;;;;;;33.72;23.13;;;;;;;7.67;100.00;100632.97;5063733;28;20028;-65
2022/04/22 05:38:22;;;;;;;34.22;24.10;;;;;;;7.72;100.00;100633.03;5062224;28;20017;-64
2022/04/22 05:40:48;;;;;;;32.90;22.60;;;;;;;7.77;100.00;100623.41;5063129;28;20538;-66
2022/04/22 05:43:14;;;;;;;34.20;22.92;;;;;;;7.84;100.00;100635.78;5062096;28;20459;-64
2022/04/22 05:45:39;;;;;;;34.67;23.60;;;;;;;7.91;100.00;100630.63;5062068;28;20115;-64
2022/04/22 05:48:06;;;;;;;35.53;23.73;;;;;;;7.99;100.00;100632.47;5063745;28;20023;-65
2022/04/22 05:50:31;;;;;;;33.95;24.45;;;;;;;8.03;100.00;100636.03;5060433;28;20082;-64
2022/04/22 05:52:57;;;;;;;35.90;25.15;;;;;;;8.09;100.00;100636.09;5064053;28;20045;-64
2022/04/22 05:55:24;;;;;;;35.08;25.58;;;;;;;8.18;100.00;100632.66;5061007;28;20083;-65
2022/04/22 05:57:52;;;;;;;34.35;24.88;;;;;;;8.20;100.00;100634.47;5063240;28;20151;-64
2022/04/22 06:00:19;;;;;;;34.40;24.70;;;;;;;8.27;100.00;100634.50;5061787;28;20020;-65
2022/04/22 06:02:46;;;;;;;34.65;25.33;;;;;;;8.32;100.00;100638.97;5062517;28;20029;-65
2022/04/22 06:05:13;;;;;;;35.55;25.15;;;;;;;8.41;100.00;100647.84;5062159;28;20029;-64
2022/04/22 06:07:40;;;;;;;37.30;25.98;;;;;;;8.44;100.00;100642.59;5062073;28;20025;-64
2022/04/22 06:13:03;;;;;;;37.80;27.08;;;;;;;8.57;100.00;100636.59;5054264;28;20033;-64
2022/04/22 06:15:29;;;;;;;35.95;26.08;;;;;;;8.61;100.00;100641.03;5061619;28;20024;-64
2022/04/22 06:17:55;;;;;;;35.50;26.88;;;;;;;8.69;100.00;100635.81;5058044;28;20084;-64
2022/04/22 06:20:21;;;;;;;36.05;26.40;;;;;;;8.76;100.00;100632.38;5061022;28;20036;-63
2022/04/22 06:22:46;;;;;;;37.47;27.35;;;;;;;8.89;100.00;100630.72;5059315;28;20032;-64
2022/04/22 06:25:12;;;;;;;36.10;27.17;;;;;;;8.94;100.00;100633.41;5059341;28;20112;-65
2022/04/22 06:27:40;;;;;;;37.42;27.42;;;;;;;9.01;100.00;100628.19;5061092;28;20024;-64
2022/04/22 06:30:16;;;;;;;34.97;26.55;;;;;;;9.07;100.00;100633.50;5062397;28;20581;-66
2022/04/22 06:32:44;;;;;;;37.25;26.58;;;;;;;9.15;100.00;100627.41;5063317;28;20024;-64
2022/04/22 06:35:11;;;;;;;38.28;28.08;;;;;;;9.22;100.00;100631.84;5062797;28;20040;-64
2022/04/22 06:37:44;;;;;;;36.35;27.67;;;;;;;9.28;100.00;100633.66;5064169;28;20036;-63
2022/04/22 06:45:46;;;;;;;36.95;27.95;;;;;;;9.58;100.00;100638.19;5061458;28;20052;-64
2022/04/22 06:48:30;;;;;;;36.53;27.08;;;;;;;9.73;100.00;100637.41;5062790;28;20053;-63
2022/04/22 06:50:56;;;;;;;36.90;26.60;;;;;;;9.82;100.00;100636.56;5066674;28;20060;-64
2022/04/22 06:53:23;;;;;;;36.88;26.67;;;;;;;9.83;100.00;100633.03;5063995;28;20087;-63
2022/04/22 06:55:49;;;;;;;35.08;24.90;;;;;;;9.91;100.00;100636.59;5065856;28;20033;-63
2022/04/22 06:58:16;;;;;;;35.38;26.02;;;;;;;9.98;100.00;100637.50;5064983;28;20021;-63
2022/04/22 07:00:43;;;;;;;35.25;26.05;;;;;;;10.06;100.00;100635.75;5064845;28;20029;-63
2022/04/22 07:03:10;;;;;;;35.08;26.27;;;;;;;10.24;100.00;100634.94;5065623;28;20024;-64
2022/04/22 07:05:37;;;;;;;33.65;25.00;;;;;;;10.30;100.00;100632.31;5063881;28;20033;-63
2022/04/22 07:08:05;;;;;;;35.75;25.27;;;;;;;10.42;100.00;100624.44;5066824;28;20036;-63
2022/04/22 07:10:31;;;;;;;33.85;25.42;;;;;;;10.48;100.00;100639.41;5062891;28;20037;-63
2022/04/22 07:12:57;;;;;;;33.55;25.48;;;;;;;10.65;100.00;100631.50;5063329;28;20036;-63
2022/04/22 07:15:23;;;;;;;34.83;25.60;;;;;;;10.87;100.00;100626.22;5066387;28;20028;-64
2022/04/22 07:17:49;;;;;;;33.88;24.75;;;;;;;10.94;100.00;100628.88;5063824;28;20078;-64
2022/04/22 07:20:15;;;;;;;35.95;24.75;;;;;;;10.93;100.00;100626.22;5064712;28;20418;-65
2022/04/22 07:22:42;;;;;;;35.53;23.70;;;;;;;10.92;100.00;100617.41;5065183;28;20535;-64
2022/04/22 07:25:09;;;;;;;34.30;25.02;;;;;;;10.94;100.00;100617.41;5063729;28;20384;-64
2022/04/22 07:27:38;;;;;;;34.78;24.95;;;;;;;10.92;100.00;100616.50;5065699;28;20023;-64
2022/04/22 07:30:06;;;;;;;33.08;24.98;;;;;;;11.11;100.00;100620.94;5063217;28;20021;-67
2022/04/22 07:32:37;;;;;;;34.72;24.83;;;;;;;11.19;100.00;100618.25;5066019;28;20459;-64
2022/04/22 07:35:08;;;;;;;34.42;24.10;;;;;;;11.30;100.00;100615.56;5063169;28;20021;-64
2022/04/22 07:37:34;;;;;;;33.42;24.58;;;;;;;11.41;100.00;100613.78;5065619;28;20163;-64
2022/04/22 07:39:59;;;;;;;30.35;21.92;;;;;;;11.42;100.00;100604.97;5061845;28;20064;-65
2022/04/22 07:42:28;;;;;;;32.22;22.50;;;;;;;11.55;100.00;100607.56;5065646;28;20035;-65
2022/04/22 07:47:46;;;;;;;32.42;22.33;;;;;;;11.99;100.00;100618.00;5063891;28;20514;-64
2022/04/22 07:50:13;;;;;;;31.45;22.15;;;;;;;12.36;100.00;100606.31;5064299;28;20021;-65
2022/04/22 07:52:38;;;;;;;29.67;20.13;;;;;;;12.45;100.00;100600.97;5062976;28;20053;-64
2022/04/22 07:55:04;;;;;;;30.30;20.30;;;;;;;12.48;100.00;100600.94;5065340;28;20024;-64
2022/04/22 07:57:30;;;;;;;30.70;20.70;;;;;;;12.41;100.00;100601.88;5062612;28;20033;-65
2022/04/22 07:59:56;;;;;;;29.38;20.88;;;;;;;12.46;100.00;100615.97;5065661;28;20052;-65
2022/04/22 08:02:22;;;;;;;29.38;19.35;;;;;;;12.53;100.00;100601.78;5062818;28;20483;-64
2022/04/22 08:04:48;;;;;;;29.25;20.60;;;;;;;12.57;100.00;100600.00;5064243;28;20120;-64
2022/04/22 08:07:14;;;;;;;29.98;20.05;;;;;;;12.46;100.00;100609.78;5063863;28;20021;-63
2022/04/22 08:09:40;;;;;;;29.90;19.98;;;;;;;12.55;100.00;100605.31;5063289;28;20029;-64
2022/04/22 08:12:08;;;;;;;28.77;19.80;;;;;;;12.67;100.00;100601.69;5065057;28;20375;-64
2022/04/22 08:14:33;;;;;;;28.13;19.40;;;;;;;12.66;100.00;100599.03;5062085;28;20047;-64
2022/04/22 08:17:00;;;;;;;30.27;20.00;;;;;;;12.73;100.00;100606.91;5065204;28;20455;-64
2022/04/22 08:19:25;;;;;;;29.75;20.58;;;;;;;12.68;100.00;100610.50;5062117;28;20029;-64
2022/04/22 08:21:50;;;;;;;28.52;19.30;;;;;;;12.69;100.00;100601.66;5064078;28;20487;-63
2022/04/22 08:24:16;;;;;;;29.30;19.95;;;;;;;12.67;100.00;100600.81;5063036;28;20029;-63
2022/04/22 08:26:42;;;;;;;29.23;20.08;;;;;;;12.65;100.00;100591.97;5063270;28;20036;-64
2022/04/22 08:29:08;;;;;;;29.92;20.35;;;;;;;12.52;100.00;100597.38;5064311;28;20029;-64
2022/04/22 08:31:33;;;;;;;29.30;20.13;;;;;;;12.54;100.00;100602.66;5061815;28;20025;-63
2022/04/22 08:33:58;;;;;;;29.25;20.40;;;;;;;12.55;100.00;100601.75;5063872;28;20391;-64
2022/04/22 08:36:27;;;;;;;29.55;20.17;;;;;;;12.71;100.00;100592.81;5062085;28;20021;-64
2022/04/22 08:38:52;;;;;;;30.30;20.25;;;;;;;12.98;100.00;100587.25;5064284;28;20539;-64
2022/04/22 08:41:20;;;;;;;28.73;20.05;;;;;;;13.33;100.00;100570.97;5062615;28;20096;-64
2022/04/22 08:43:46;;;;;;;29.05;19.27;;;;;;;13.72;100.00;100568.75;5063114;28;20017;-63
2022/04/22 08:49:58;;;;;;;31.45;19.95;;;;;;;14.12;100.00;100573.53;5063652;28;20032;-63
2022/04/22 08:51:43;;;;;;;28.48;18.67;;;;;;;14.60;100.00;100585.19;5062301;28;20106;-64
2022/04/22 08:54:11;;;;;;;28.10;18.48;;;;;;;15.03;100.00;100583.59;5063829;28;20025;-64
2022/04/22 08:56:38;;;;;;;27.90;18.40;;;;;;;15.58;100.00;100579.91;5061617;28;20108;-64
2022/04/22 08:59:03;;;;;;;28.13;18.33;;;;;;;15.90;100.00;100580.13;5065000;28;20032;-64
2022/04/22 09:01:28;;;;;;;27.83;17.77;;;;;;;15.56;100.00;100589.69;5061189;28;20029;-64
2022/04/22 09:03:54;;;;;;;26.83;17.92;;;;;;;15.55;100.00;100582.59;5063910;28;20028;-64
2022/04/22 09:06:20;;;;;;;27.20;17.73;;;;;;;16.07;100.00;100579.78;5062550;28;20028;-64
2022/04/22 09:08:46;;;;;;;27.58;17.67;;;;;;;16.36;100.00;100571.97;5062676;28;20048;-64
2022/04/22 09:11:12;;;;;;;26.98;17.63;;;;;;;15.99;100.00;100577.28;5063120;28;20085;-64
2022/04/22 09:13:37;;;;;;;27.80;17.40;;;;;;;15.88;100.00;100564.19;5061699;28;20033;-64
2022/04/22 09:16:03;;;;;;;26.83;17.88;;;;;;;15.96;100.00;100567.56;5064374;28;20021;-64
2022/04/22 09:18:30;;;;;;;26.83;17.25;;;;;;;15.77;100.00;100568.81;5060770;28;20456;-64
2022/04/22 09:21:02;;;;;;;25.92;16.98;;;;;;;15.78;100.00;100568.81;5064261;28;20031;-64
2022/04/22 09:23:34;;;;;;;26.70;17.77;;;;;;;15.71;100.00;100555.66;5061047;28;20025;-64
2022/04/22 09:26:02;;;;;;;26.17;17.45;;;;;;;15.85;100.00;100553.59;5061161;28;20082;-64
2022/04/22 09:28:27;;;;;;;25.80;16.27;;;;;;;16.09;100.00;100553.94;5064330;28;20099;-64
2022/04/22 09:31:00;;;;;;;24.75;14.60;;;;;;;16.04;100.00;100551.38;5061685;28;20124;-64
2022/04/22 09:33:34;;;;;;;24.73;13.85;;;;;;;15.79;100.00;100549.28;5063721;28;20035;-64
2022/04/22 09:44:27;;;;;;;25.42;15.23;;;;;;;15.28;100.00;100536.97;5070021;28;20032;-64
2022/04/22 09:47:10;;;;;;;24.95;14.40;;;;;;;15.49;100.00;100530.34;5070118;28;20044;-64
2022/04/22 09:49:43;;;;;;;25.00;14.60;;;;;;;15.49;100.00;100518.78;5066978;28;20053;-64
2022/04/22 09:52:08;;;;;;;25.30;13.52;;;;;;;15.90;100.00;100516.16;5069896;28;20048;-63
2022/04/22 09:54:34;;;;;;;24.63;14.52;;;;;;;16.60;100.00;100516.25;5069985;28;20039;-64
2022/04/22 09:57:02;;;;;;;25.30;13.60;;;;;;;18.87;86.18;100516.59;5070015;28;20044;-64
2022/04/22 09:59:28;;;;;;;23.23;13.45;;;;;;;20.59;76.07;100518.94;5070201;28;20025;-64
2022/04/22 10:01:54;;;;;;;23.30;14.38;;;;;;;20.06;63.66;100507.69;5069875;28;20040;-64
2022/04/22 10:04:21;;;;;;;23.90;13.65;;;;;;;18.72;66.38;100509.97;5056295;28;20033;-64
2022/04/22 10:06:47;;;;;;;23.60;14.45;;;;;;;17.36;68.88;100507.09;5074223;28;20387;-65
2022/04/22 10:09:17;;;;;;;24.17;14.75;;;;;;;16.63;73.25;100507.28;5073747;28;20043;-65
2022/04/22 10:11:44;;;;;;;27.55;15.48;;;;;;;16.09;75.19;100506.84;5073636;28;20111;-66
2022/04/22 10:14:11;;;;;;;24.73;14.52;;;;;;;15.61;76.01;100513.22;5073845;28;20109;-65
2022/04/22 10:16:37;;;;;;;24.20;14.50;;;;;;;15.31;77.01;100504.97;5073660;28;20399;-66
2022/04/22 10:19:05;;;;;;;24.38;15.10;;;;;;;15.07;77.26;100511.66;5073487;28;20048;-67
2022/04/22 10:21:31;;;;;;;25.90;15.20;;;;;;;15.12;78.39;100508.91;5066440;28;20048;-65
2022/04/22 10:23:57;;;;;;;24.88;15.43;;;;;;;15.15;77.11;100504.38;5064185;28;20025;-66
2022/04/22 10:26:23;;;;;;;25.95;15.32;;;;;;;14.97;76.98;100502.97;5066512;28;20037;-65
2022/04/22 10:28:49;;;;;;;25.88;16.17;;;;;;;14.86;78.73;100502.28;5065559;28;20025;-65
2022/04/22 10:31:15;;;;;;;26.38;15.82;;;;;;;14.83;79.45;100499.69;5065187;28;20029;-68
2022/04/22 10:33:40;;;;;;;26.63;17.23;;;;;;;15.09;77.99;100491.22;5066350;28;20035;-65
2022/04/22 10:36:06;;;;;;;26.90;16.65;;;;;;;15.41;77.89;100495.00;5064131;28;20426;-65
2022/04/22 10:38:38;;;;;;;26.35;16.67;;;;;;;15.64;77.03;100486.50;5067059;28;20538;-65
2022/04/22 10:41:12;;;;;;;26.25;16.35;;;;;;;15.59;77.00;100488.38;5063873;28;20179;-65
2022/04/22 10:43:38;;;;;;;25.05;16.45;;;;;;;15.44;77.34;100486.06;5064118;28;20025;-68
2022/04/22 10:49:09;;;;;;;25.52;14.85;;;;;;;15.40;75.13;100479.91;5065646;28;20090;-69
2022/04/22 10:52:10;;;;;;;27.40;15.52;;;;;;;15.11;75.97;100476.06;5063451;28;20021;-68
2022/04/22 10:54:51;;;;;;;28.60;15.90;;;;;;;15.10;76.18;100474.34;5063514;28;20124;-68
2022/04/22 10:57:35;;;;;;;27.38;16.27;;;;;;;15.10;76.41;100481.44;5065121;28;20039;-67
2022/04/22 11:00:07;;;;;;;27.95;16.95;;;;;;;14.93;76.07;100482.66;5063779;28;20078;-64
2022/04/22 11:02:35;;;;;;;27.25;16.50;;;;;;;15.04;75.84;100468.25;5063469;28;20021;-63
2022/04/22 11:05:25;;;;;;;28.50;16.40;;;;;;;15.36;75.26;100469.38;5063053;28;20398;-65
2022/04/22 11:07:50;;;;;;;26.65;16.23;;;;;;;15.76;73.16;100465.84;5065252;28;20029;-66
2022/04/22 11:10:15;;;;;;;27.98;16.42;;;;;;;15.65;72.49;100466.97;5065274;28;20032;-64
2022/04/22 11:12:54;;;;;;;26.67;16.17;;;;;;;15.64;73.51;100464.31;5064125;28;20028;-64
2022/04/22 11:15:42;;;;;;;25.60;15.95;;;;;;;15.59;73.56;100468.88;5064504;28;20029;-65
2022/04/22 11:18:08;;;;;;;27.13;16.42;;;;;;;15.99;72.52;100463.53;5063426;28;20032;-65
2022/04/22 11:20:38;;;;;;;26.75;16.52;;;;;;;16.53;71.94;100458.63;5066494;28;20024;-69
2022/04/22 11:23:06;;;;;;;26.40;16.38;;;;;;;16.49;70.14;100457.81;5062979;28;20040;-65
2022/04/22 11:25:33;;;;;;;28.30;16.10;;;;;;;15.98;70.68;100453.78;5062990;28;20028;-66
2022/04/22 11:27:59;;;;;;;25.48;16.55;;;;;;;15.62;72.04;100456.34;5066183;28;20108;-65
2022/04/22 11:30:25;;;;;;;27.77;17.40;;;;;;;15.23;73.99;100459.00;5063261;28;20455;-68
2022/04/22 11:32:56;;;;;;;26.58;16.98;;;;;;;15.06;76.15;100466.44;5065188;28;20061;-65
2022/04/22 11:35:22;;;;;;;27.05;17.30;;;;;;;14.81;76.72;100458.94;5063978;28;20056;-68
2022/04/22 11:38:04;;;;;;;26.15;17.30;;;;;;;14.60;77.23;100461.03;5064761;28;20060;-65
2022/04/22 11:40:37;;;;;;;27.30;17.77;;;;;;;14.60;79.07;100466.38;5062799;28;20438;-66
2022/04/22 11:43:17;;;;;;;27.33;17.77;;;;;;;14.74;78.72;100471.47;5062750;28;20032;-67
2022/04/22 11:45:45;;;;;;;28.15;17.77;;;;;;;14.60;78.50;100454.88;5063610;28;20029;-65
2022/04/22 11:48:12;;;;;;;27.95;17.40;;;;;;;14.70;79.97;100461.78;5065285;28;20029;-65
2022/04/22 11:50:42;;;;;;;28.27;17.75;;;;;;;15.12;78.22;100461.88;5062674;28;20491;-65
2022/04/22 11:53:19;;;;;;;25.95;17.77;;;;;;;15.48;76.10;100440.69;5065406;28;20483;-68
2022/04/22 11:55:47;;;;;;;28.65;17.70;;;;;;;15.76;74.89;100450.72;5063903;28;20079;-69
2022/04/22 11:58:14;;;;;;;26.95;17.27;;;;;;;16.61;72.54;100447.75;5064468;28;20107;-68
2022/04/22 12:06:13;;;;;;;26.42;16.10;;;;;;;17.60;66.52;100435.13;5063083;28;20548;-68
2022/04/22 12:09:01;;;;;;;26.23;16.00;;;;;;;17.69;67.49;100440.19;5065261;28;20383;-67
2022/04/22 12:11:27;;;;;;;25.17;15.65;;;;;;;17.43;66.05;100444.53;5063328;28;20028;-66